Time;durP1;ratioP1;P1;durP2;ratioP2;P2;SDS_P1;SDS_P2;PMS_P1;PMS_P2;Temp;Humidity;BMP_temperature;BMP_pressure;BME280_temperature;BME280_humidity;BME280_pressure;Samples;Min_cycle;Max_cycle;Signal;HPM_P1;HPM_P2
2023/06/01 00:02:26;;;;;;;6.95;4.70;;;17.00;46.40;;;;;;4974871;28;20382;-78
2023/06/01 00:04:57;;;;;;;5.43;4.50;;;17.00;45.80;;;;;;4978186;28;20042;-79
2023/06/01 00:07:37;;;;;;;5.63;5.05;;;17.00;45.80;;;;;;4978722;28;20192;-78
2023/06/01 00:10:09;;;;;;;4.80;4.38;;;17.00;45.90;;;;;;4977494;28;20058;-77
2023/06/01 00:12:35;;;;;;;5.03;4.13;;;17.00;45.90;;;;;;4979855;28;20193;-77
2023/06/01 00:15:01;;;;;;;7.60;4.25;;;17.00;45.90;;;;;;4978348;28;20120;-78
2023/06/01 00:17:30;;;;;;;7.28;4.90;;;17.00;46.00;;;;;;4978410;28;20177;-78
2023/06/01 00:20:07;;;;;;;4.45;4.03;;;17.00;46.00;;;;;;4976887;28;20389;-78
2023/06/01 00:22:38;;;;;;;5.28;4.03;;;17.00;46.00;;;;;;4978647;28;20034;-77
2023/06/01 00:25:07;;;;;;;4.13;3.72;;;16.90;45.90;;;;;;4973282;28;20476;-77
2023/06/01 00:27:36;;;;;;;5.82;4.38;;;17.00;46.20;;;;;;4977811;28;20034;-78
2023/06/01 00:30:03;;;;;;;5.15;4.55;;;16.90;46.00;;;;;;4971213;28;20387;-77
2023/06/01 00:32:34;;;;;;;4.28;3.88;;;16.90;46.00;;;;;;4978154;28;20026;-78
2023/06/01 00:35:06;;;;;;;4.78;4.30;;;16.90;46.00;;;;;;4978932;28;20054;-79
2023/06/01 00:37:32;;;;;;;4.18;3.88;;;16.90;46.10;;;;;;4977667;28;20049;-78
2023/06/01 00:39:58;;;;;;;6.50;4.80;;;16.90;46.10;;;;;;4975721;28;21106;-79
2023/06/01 00:42:27;;;;;;;5.30;4.80;;;16.80;45.90;;;;;;4977727;28;20038;-78
2023/06/01 00:44:58;;;;;;;4.50;4.10;;;16.80;46.00;;;;;;4977443;28;20061;-78
2023/06/01 00:47:24;;;;;;;6.55;4.07;;;16.80;46.10;;;;;;4977755;28;20453;-78
2023/06/01 00:49:54;;;;;;;4.72;3.95;;;16.80;46.10;;;;;;4976369;28;20536;-78
2023/06/01 00:52:24;;;;;;;4.53;4.13;;;16.80;46.10;;;;;;4980128;28;20019;-78
2023/06/01 00:54:50;;;;;;;4.70;4.20;;;16.70;46.00;;;;;;4980284;28;20046;-78
2023/06/01 00:57:26;;;;;;;5.65;3.83;;;16.70;46.00;;;;;;4982955;28;20094;-80
2023/06/01 00:59:54;;;;;;;4.10;3.47;;;16.70;46.00;;;;;;4983374;28;20042;-78
2023/06/01 01:02:23;;;;;;;4.65;3.90;;;16.70;46.20;;;;;;4964066;28;20030;-78
2023/06/01 01:04:52;;;;;;;4.22;3.83;;;16.70;46.10;;;;;;4982065;28;20038;-78
2023/06/01 01:07:32;;;;;;;4.25;3.83;;;16.70;46.10;;;;;;4977037;28;20053;-79
2023/06/01 01:10:13;;;;;;;4.00;3.55;;;16.70;46.20;;;;;;4980879;28;20273;-78
2023/06/01 01:12:53;;;;;;;4.00;3.63;;;16.60;46.10;;;;;;4982780;28;20057;-78
2023/06/01 01:15:28;;;;;;;4.30;3.92;;;16.60;46.00;;;;;;4977962;28;20046;-78
2023/06/01 01:18:03;;;;;;;6.18;4.82;;;16.60;46.10;;;;;;4979790;28;20042;-78
2023/06/01 01:20:41;;;;;;;4.78;3.38;;;16.50;46.00;;;;;;4989129;28;20935;-78
2023/06/01 01:23:16;;;;;;;4.32;3.88;;;16.50;46.10;;;;;;4980056;28;20038;-78
2023/06/01 01:25:52;;;;;;;5.43;4.25;;;16.50;46.20;;;;;;4976495;28;20038;-78
2023/06/01 01:28:40;;;;;;;4.40;4.00;;;16.40;46.10;;;;;;4982078;28;20093;-78
2023/06/01 01:31:24;;;;;;;3.88;3.58;;;16.40;46.20;;;;;;4993663;28;20026;-78
2023/06/01 01:34:04;;;;;;;4.07;3.70;;;16.40;46.00;;;;;;4981942;28;20042;-78
2023/06/01 01:36:37;;;;;;;3.92;3.55;;;16.40;46.10;;;;;;4977829;28;20026;-78
2023/06/01 01:39:05;;;;;;;4.63;4.15;;;16.40;46.20;;;;;;4982038;28;20130;-79
2023/06/01 01:41:35;;;;;;;4.30;3.90;;;16.30;46.10;;;;;;4982794;28;20122;-78
2023/06/01 01:44:01;;;;;;;4.20;3.70;;;16.30;46.10;;;;;;4981887;28;20050;-76
2023/06/01 01:46:49;;;;;;;4.28;3.85;;;16.30;46.20;;;;;;4981269;28;20065;-77
2023/06/01 01:49:53;;;;;;;3.92;3.50;;;16.30;46.20;;;;;;4985881;28;20081;-78
2023/06/01 01:52:26;;;;;;;3.88;3.50;;;16.20;46.10;;;;;;4969261;28;20108;-77
2023/06/01 01:55:02;;;;;;;3.50;3.20;;;16.20;46.10;;;;;;4985084;28;20375;-77
2023/06/01 01:57:30;;;;;;;3.60;3.30;;;16.20;46.10;;;;;;4986371;28;20031;-77
2023/06/01 01:59:57;;;;;;;4.00;3.63;;;16.20;46.20;;;;;;4965506;28;20121;-77
2023/06/01 02:02:26;;;;;;;3.78;3.47;;;16.10;46.00;;;;;;4984799;28;20035;-78
2023/06/01 02:04:52;;;;;;;4.32;3.38;;;16.10;46.10;;;;;;4985662;28;20113;-78
2023/06/01 02:07:18;;;;;;;4.45;3.40;;;16.10;46.20;;;;;;4986513;28;20038;-78
2023/06/01 02:09:44;;;;;;;3.75;3.45;;;16.10;46.20;;;;;;4984627;28;20046;-78
2023/06/01 02:12:12;;;;;;;3.75;3.20;;;16.10;46.30;;;;;;4985725;28;20537;-78
2023/06/01 02:14:38;;;;;;;3.35;3.05;;;16.00;46.10;;;;;;4985900;28;20034;-77
2023/06/01 02:17:05;;;;;;;3.75;3.15;;;16.00;46.20;;;;;;4986668;28;20034;-79
2023/06/01 02:19:31;;;;;;;3.30;2.97;;;16.00;46.20;;;;;;4989563;28;20042;-78
2023/06/01 02:21:57;;;;;;;3.88;3.47;;;16.00;46.20;;;;;;4985257;28;20304;-79
2023/06/01 02:24:23;;;;;;;3.33;3.03;;;16.00;46.30;;;;;;4983716;28;20129;-78
2023/06/01 02:26:57;;;;;;;3.65;3.30;;;15.90;46.10;;;;;;4986307;28;20434;-79
2023/06/01 02:29:23;;;;;;;3.28;2.97;;;15.90;46.20;;;;;;4980915;28;20129;-79
2023/06/01 02:32:06;;;;;;;3.50;3.20;;;15.90;46.20;;;;;;4986331;28;20026;-78
2023/06/01 02:34:32;;;;;;;4.38;3.15;;;15.80;46.00;;;;;;4985117;28;20691;-77
2023/06/01 02:37:00;;;;;;;3.05;2.72;;;15.90;46.30;;;;;;4975431;28;20078;-78
2023/06/01 02:39:29;;;;;;;3.20;2.90;;;15.80;46.10;;;;;;4980697;28;20057;-76
2023/06/01 02:41:56;;;;;;;4.18;3.00;;;15.80;46.10;;;;;;4985570;28;20034;-77
2023/06/01 02:44:25;;;;;;;3.75;3.45;;;15.80;46.20;;;;;;4982037;28;20465;-76
2023/06/01 02:46:51;;;;;;;3.53;3.22;;;15.70;46.10;;;;;;4986513;28;20062;-77
2023/06/01 02:49:17;;;;;;;3.47;3.17;;;15.70;46.10;;;;;;4984225;28;20122;-78
2023/06/01 02:51:44;;;;;;;5.03;3.80;;;15.70;46.20;;;;;;4979847;28;20066;-77
2023/06/01 02:54:22;;;;;;;3.65;3.10;;;15.70;46.30;;;;;;5001237;28;20037;-79
2023/06/01 02:56:58;;;;;;;3.30;3.00;;;15.70;46.30;;;;;;4983073;28;20046;-79
2023/06/01 02:59:35;;;;;;;6.55;3.55;;;15.60;46.10;;;;;;4983549;28;20030;-79
2023/06/01 03:02:03;;;;;;;4.15;3.10;;;15.60;46.10;;;;;;4985300;28;20052;-79
2023/06/01 03:04:34;;;;;;;3.63;3.25;;;15.60;46.20;;;;;;4984637;28;20034;-80
2023/06/01 03:07:04;;;;;;;5.60;3.30;;;15.60;46.20;;;;;;5000647;28;20085;-79
2023/06/01 03:09:48;;;;;;;4.47;3.28;;;15.50;46.10;;;;;;4985007;28;20142;-78
2023/06/01 03:12:33;;;;;;;4.75;4.30;;;15.50;46.20;;;;;;4981458;28;20506;-78
2023/06/01 03:14:59;;;;;;;4.13;3.45;;;15.50;46.30;;;;;;4997184;28;20129;-78
2023/06/01 03:17:33;;;;;;;6.00;4.00;;;15.40;46.30;;;;;;4984852;28;20299;-78
2023/06/01 03:20:00;;;;;;;3.78;3.47;;;15.30;46.30;;;;;;4968052;28;20385;-79
2023/06/01 03:22:26;;;;;;;3.60;3.30;;;15.20;46.40;;;;;;4983033;28;20026;-78
2023/06/01 03:24:54;;;;;;;3.97;3.28;;;15.20;46.60;;;;;;4982690;28;20455;-78
2023/06/01 03:27:31;;;;;;;5.18;3.42;;;15.10;46.60;;;;;;4985987;28;20533;-78
2023/06/01 03:29:58;;;;;;;4.93;3.65;;;15.00;46.60;;;;;;4975623;28;20325;-79
2023/06/01 03:32:24;;;;;;;3.97;3.58;;;15.00;46.80;;;;;;4965260;28;20085;-78
2023/06/01 03:35:11;;;;;;;4.57;3.63;;;14.90;46.70;;;;;;4993305;28;20046;-78
2023/06/01 03:37:47;;;;;;;3.63;3.22;;;14.90;46.80;;;;;;4969620;28;20038;-77
2023/06/01 03:40:17;;;;;;;3.10;2.85;;;14.90;46.80;;;;;;4981248;28;20053;-77
2023/06/01 03:42:45;;;;;;;3.60;3.30;;;14.90;46.80;;;;;;4984549;28;20101;-77
2023/06/01 03:45:13;;;;;;;3.28;2.90;;;14.90;47.40;;;;;;4967735;28;20030;-78
2023/06/01 03:47:39;;;;;;;3.85;3.50;;;14.90;46.80;;;;;;4979538;28;20407;-76
2023/06/01 03:50:10;;;;;;;3.45;3.15;;;14.90;46.80;;;;;;4996153;28;20526;-77
2023/06/01 03:52:39;;;;;;;4.00;3.58;;;14.90;46.80;;;;;;4984669;28;20045;-77
2023/06/01 03:55:30;;;;;;;3.40;3.05;;;14.90;46.80;;;;;;4970120;28;20038;-78
2023/06/01 03:58:07;;;;;;;3.88;3.28;;;15.00;47.00;;;;;;4983333;28;20045;-78
2023/06/01 04:00:34;;;;;;;3.30;2.97;;;14.90;46.80;;;;;;4980251;28;20045;-77
2023/06/01 04:03:06;;;;;;;3.10;2.80;;;15.00;47.00;;;;;;4985518;28;20385;-77
2023/06/01 04:05:36;;;;;;;3.65;3.35;;;14.90;46.90;;;;;;4978210;28;20042;-77
2023/06/01 04:08:02;;;;;;;4.00;3.55;;;15.00;47.10;;;;;;4993247;28;20042;-77
2023/06/01 04:10:28;;;;;;;3.40;3.10;;;14.90;46.90;;;;;;5001119;28;20099;-76
2023/06/01 04:12:54;;;;;;;3.65;3.28;;;15.00;47.10;;;;;;4984914;28;20126;-77
2023/06/01 04:15:25;;;;;;;3.28;2.97;;;15.00;47.20;;;;;;4977632;28;20352;-77
2023/06/01 04:17:53;;;;;;;4.50;2.97;;;15.00;47.20;;;;;;4999699;28;20342;-77
2023/06/01 04:20:23;;;;;;;3.45;3.15;;;14.90;47.10;;;;;;4983451;28;20482;-77
2023/06/01 04:22:52;;;;;;;4.85;3.63;;;14.90;47.10;;;;;;4964163;28;20167;-78
2023/06/01 04:25:20;;;;;;;4.75;3.22;;;14.90;47.10;;;;;;4986982;28;20478;-79
2023/06/01 04:28:07;;;;;;;3.70;3.40;;;14.90;47.20;;;;;;4970747;28;20054;-78
2023/06/01 04:30:33;;;;;;;4.22;3.35;;;14.90;47.20;;;;;;4969423;28;20061;-78
2023/06/01 04:33:00;;;;;;;3.65;3.25;;;14.90;47.20;;;;;;4971410;28;20035;-78
2023/06/01 04:35:30;;;;;;;3.60;3.30;;;14.90;47.30;;;;;;4987923;28;20046;-78
2023/06/01 04:37:58;;;;;;;4.95;3.92;;;14.90;47.30;;;;;;4987558;28;20431;-78
2023/06/01 04:40:31;;;;;;;4.43;3.72;;;14.90;47.30;;;;;;4991654;28;20044;-78
2023/06/01 04:42:57;;;;;;;4.63;3.90;;;14.90;47.30;;;;;;4984327;28;20417;-77
2023/06/01 04:45:26;;;;;;;4.20;3.63;;;14.90;47.40;;;;;;4985876;28;20053;-78
2023/06/01 04:48:01;;;;;;;4.22;3.83;;;14.90;47.40;;;;;;4980761;28;20057;-78
2023/06/01 04:50:37;;;;;;;4.68;3.60;;;14.90;47.50;;;;;;4981186;28;20112;-79
2023/06/01 04:53:05;;;;;;;5.10;3.92;;;14.90;47.40;;;;;;4986182;28;20125;-78
2023/06/01 04:55:31;;;;;;;5.30;4.40;;;14.90;47.40;;;;;;4983362;28;20446;-78
2023/06/01 04:57:58;;;;;;;5.38;4.55;;;14.90;47.50;;;;;;4982446;28;20405;-78
2023/06/01 05:00:24;;;;;;;5.25;4.50;;;14.90;47.50;;;;;;4981301;28;20603;-78
2023/06/01 05:03:10;;;;;;;5.00;4.20;;;14.90;47.50;;;;;;4960043;28;20054;-78
2023/06/01 05:05:37;;;;;;;5.63;4.90;;;14.90;47.50;;;;;;4958812;28;20118;-80
2023/06/01 05:08:03;;;;;;;5.88;4.50;;;14.90;47.50;;;;;;4965300;28;20081;-79
2023/06/01 05:10:30;;;;;;;6.68;5.55;;;14.90;47.50;;;;;;4981482;28;20081;-79
2023/06/01 05:12:56;;;;;;;6.93;5.57;;;14.90;47.50;;;;;;4978338;28;20272;-89
2023/06/01 05:15:31;;;;;;;5.47;4.40;;;14.90;47.50;;;;;;4982900;28;20513;-79
2023/06/01 05:17:57;;;;;;;5.78;5.13;;;14.90;47.50;;;;;;4989833;28;20088;-85
2023/06/01 05:20:29;;;;;;;6.78;4.95;;;14.90;47.50;;;;;;4979132;28;20145;-88
2023/06/01 05:23:01;;;;;;;5.70;5.15;;;14.90;47.50;;;;;;4982248;28;20097;-88
2023/06/01 05:25:30;;;;;;;6.10;5.50;;;14.90;47.50;;;;;;4983814;28;20042;-84
2023/06/01 05:27:56;;;;;;;6.53;5.30;;;14.90;47.50;;;;;;4980715;28;20097;-88
2023/06/01 05:30:44;;;;;;;8.70;6.28;;;14.90;47.50;;;;;;4923974;28;20557;-87
2023/06/01 05:33:10;;;;;;;5.93;5.32;;;14.80;47.30;;;;;;4973591;28;20149;-89
2023/06/01 05:35:39;;;;;;;7.32;5.97;;;14.90;47.50;;;;;;4981117;28;20054;-86
2023/06/01 05:38:13;;;;;;;6.43;5.25;;;14.90;47.50;;;;;;4981222;28;20864;-88
2023/06/01 05:40:39;;;;;;;6.80;5.30;;;14.90;47.50;;;;;;4982020;28;20428;-90
2023/06/01 05:43:06;;;;;;;6.80;5.40;;;14.80;47.40;;;;;;4970320;28;20042;-81
2023/06/01 05:45:35;;;;;;;6.15;5.57;;;14.90;47.70;;;;;;4984366;28;20478;-80
2023/06/01 05:48:05;;;;;;;7.10;5.88;;;14.80;47.60;;;;;;4977888;28;20472;-79
2023/06/01 05:50:37;;;;;;;7.22;5.60;;;14.70;47.60;;;;;;4975233;28;20045;-80
2023/06/01 05:53:03;;;;;;;6.30;5.70;;;14.70;47.80;;;;;;4979412;28;20057;-81
2023/06/01 05:55:30;;;;;;;10.10;7.60;;;14.70;48.10;;;;;;4973050;28;20035;-79
2023/06/01 05:57:56;;;;;;;7.50;5.15;;;14.70;48.10;;;;;;4975251;28;20052;-79
2023/06/01 06:00:23;;;;;;;6.20;5.43;;;14.70;48.20;;;;;;4977597;28;20572;-82
2023/06/01 06:02:49;;;;;;;6.18;5.47;;;14.70;48.20;;;;;;4961787;28;20069;-82
2023/06/01 06:05:15;;;;;;;9.15;6.90;;;14.80;48.30;;;;;;4985170;28;20038;-81
2023/06/01 06:07:46;;;;;;;6.50;5.90;;;14.80;48.30;;;;;;4980551;28;20061;-80
2023/06/01 06:10:13;;;;;;;7.68;6.35;;;14.80;48.30;;;;;;4976105;28;20578;-81
2023/06/01 06:12:45;;;;;;;10.80;7.77;;;14.80;48.40;;;;;;4978926;28;20050;-81
2023/06/01 06:15:11;;;;;;;8.52;5.82;;;14.70;48.30;;;;;;4976093;28;20287;-80
2023/06/01 06:17:40;;;;;;;5.90;5.30;;;14.70;48.30;;;;;;4961440;28;20038;-84
2023/06/01 06:20:07;;;;;;;7.95;6.53;;;14.70;48.50;;;;;;4982217;28;20038;-84
2023/06/01 06:22:33;;;;;;;6.38;5.78;;;14.70;48.70;;;;;;4977772;28;20022;-85
2023/06/01 06:24:59;;;;;;;6.28;5.43;;;14.80;48.90;;;;;;4979133;28;20072;-79
2023/06/01 06:27:25;;;;;;;6.50;5.88;;;14.90;49.30;;;;;;4975105;28;20236;-80
2023/06/01 06:29:54;;;;;;;6.65;5.88;;;14.90;49.30;;;;;;4973786;28;20081;-82
2023/06/01 06:32:20;;;;;;;6.28;5.57;;;15.00;49.50;;;;;;4978558;28;20038;-84
2023/06/01 06:34:50;;;;;;;6.30;5.63;;;15.10;49.80;;;;;;4976878;28;20544;-82
2023/06/01 06:37:16;;;;;;;6.80;5.50;;;15.10;49.80;;;;;;4977151;28;20038;-83
2023/06/01 06:39:43;;;;;;;7.05;5.40;;;15.20;49.90;;;;;;4979132;28;20402;-83
2023/06/01 06:42:24;;;;;;;6.93;5.60;;;15.30;50.10;;;;;;4977719;28;20137;-84
2023/06/01 06:44:57;;;;;;;5.97;5.47;;;15.40;50.20;;;;;;4974496;28;20125;-83
2023/06/01 06:47:24;;;;;;;6.35;5.75;;;15.40;50.00;;;;;;4974561;28;20046;-81
2023/06/01 06:49:51;;;;;;;6.32;5.63;;;15.50;50.00;;;;;;4974319;28;20046;-83
2023/06/01 06:52:17;;;;;;;5.90;5.30;;;15.60;50.70;;;;;;4976961;28;20037;-83
2023/06/01 06:54:44;;;;;;;6.00;5.05;;;15.70;50.20;;;;;;4975831;28;20068;-84
2023/06/01 06:57:13;;;;;;;7.57;4.97;;;15.80;50.30;;;;;;4977639;28;20030;-84
2023/06/01 06:59:42;;;;;;;6.03;4.95;;;15.90;50.30;;;;;;4974322;28;20037;-84
2023/06/01 07:02:08;;;;;;;5.25;4.43;;;15.90;50.10;;;;;;4977661;28;20411;-83
2023/06/01 07:04:39;;;;;;;6.13;5.38;;;16.00;50.10;;;;;;4975803;28;20034;-85
2023/06/01 07:07:05;;;;;;;5.47;4.78;;;16.10;50.20;;;;;;4984791;28;20128;-83
2023/06/01 07:09:33;;;;;;;6.47;4.88;;;16.20;50.20;;;;;;4984644;28;20077;-83
2023/06/01 07:11:59;;;;;;;5.75;5.10;;;16.20;50.00;;;;;;4978951;28;20030;-79
2023/06/01 07:14:25;;;;;;;5.45;4.85;;;16.30;50.10;;;;;;4975690;28;20461;-78
2023/06/01 07:16:51;;;;;;;5.78;4.60;;;16.40;50.10;;;;;;4973615;28;20426;-83
2023/06/01 07:19:17;;;;;;;6.43;4.63;;;16.50;50.10;;;;;;4979790;28;20053;-81
2023/06/01 07:21:46;;;;;;;5.43;4.30;;;16.50;50.00;;;;;;4977929;28;20034;-82
2023/06/01 07:24:20;;;;;;;5.43;4.82;;;16.60;50.00;;;;;;4975467;28;20034;-80
2023/06/01 07:26:46;;;;;;;6.32;5.22;;;16.70;50.00;;;;;;4977242;28;20575;-83
2023/06/01 07:29:13;;;;;;;5.13;4.68;;;16.80;50.10;;;;;;4971172;28;20045;-82
2023/06/01 07:31:39;;;;;;;5.68;4.93;;;16.80;49.90;;;;;;4972425;28;20027;-82
2023/06/01 07:34:05;;;;;;;6.63;5.50;;;16.80;49.80;;;;;;4971417;28;20096;-81
2023/06/01 07:36:36;;;;;;;5.75;5.03;;;16.90;49.90;;;;;;4976193;28;20133;-82
2023/06/01 07:39:08;;;;;;;6.35;5.13;;;17.00;49.90;;;;;;4975492;28;20074;-81
2023/06/01 07:42:03;;;;;;;5.40;4.70;;;17.10;50.00;;;;;;4965460;28;20062;-79
2023/06/01 07:44:33;;;;;;;6.65;4.75;;;17.20;49.90;;;;;;4988723;28;20562;-80
2023/06/01 07:46:59;;;;;;;6.35;4.68;;;17.20;49.70;;;;;;4972443;28;20066;-81
2023/06/01 07:49:25;;;;;;;5.00;4.50;;;17.30;49.70;;;;;;4975918;28;20046;-80
2023/06/01 07:51:52;;;;;;;5.28;4.50;;;17.40;49.70;;;;;;4970671;28;20031;-83
2023/06/01 07:54:18;;;;;;;5.88;4.32;;;17.50;49.80;;;;;;4979462;28;20038;-80
2023/06/01 07:56:47;;;;;;;5.65;4.38;;;17.60;49.80;;;;;;4973881;28;20658;-79
2023/06/01 07:59:16;;;;;;;4.95;4.43;;;17.70;49.80;;;;;;4978861;28;20042;-79
2023/06/01 08:01:42;;;;;;;9.10;5.55;;;17.70;49.60;;;;;;4975011;28;20436;-78
2023/06/01 08:04:10;;;;;;;5.75;3.97;;;17.80;49.80;;;;;;4974900;28;20462;-78
2023/06/01 08:06:38;;;;;;;10.50;4.93;;;17.90;49.80;;;;;;4975678;28;20030;-79
2023/06/01 08:09:04;;;;;;;4.40;4.00;;;18.00;49.90;;;;;;4985662;28;20464;-77
2023/06/01 08:11:36;;;;;;;4.47;4.07;;;18.10;49.90;;;;;;4976526;28;20030;-78
2023/06/01 08:14:07;;;;;;;5.00;4.22;;;18.30;50.10;;;;;;4968850;28;20084;-77
2023/06/01 08:16:36;;;;;;;10.70;4.57;;;18.40;50.10;;;;;;4972150;28;20069;-78
2023/06/01 08:19:03;;;;;;;4.53;4.13;;;18.50;50.00;;;;;;4971316;28;20027;-78
2023/06/01 08:21:29;;;;;;;4.13;3.67;;;18.70;50.10;;;;;;4971570;28;20030;-79
2023/06/01 08:23:58;;;;;;;4.90;4.40;;;18.90;50.20;;;;;;4971904;28;20060;-78
2023/06/01 08:26:28;;;;;;;5.25;4.55;;;19.00;50.10;;;;;;4973535;28;20339;-78
2023/06/01 08:28:55;;;;;;;5.60;3.83;;;19.20;50.10;;;;;;4969346;28;20136;-78
2023/06/01 08:31:25;;;;;;;4.95;4.40;;;19.40;50.10;;;;;;4976382;28;20026;-78
2023/06/01 08:33:56;;;;;;;4.93;3.72;;;19.50;50.00;;;;;;4974191;28;20035;-79
2023/06/01 08:36:22;;;;;;;4.55;4.15;;;19.70;49.90;;;;;;4970916;28;20050;-80
2023/06/01 08:38:51;;;;;;;4.47;3.92;;;19.90;49.90;;;;;;4975459;28;20125;-78
2023/06/01 08:41:39;;;;;;;4.38;3.97;;;20.10;49.80;;;;;;4971876;28;20042;-78
2023/06/01 08:44:08;;;;;;;5.60;4.60;;;20.20;49.50;;;;;;4974490;28;20541;-78
2023/06/01 08:46:35;;;;;;;4.53;3.92;;;20.40;49.40;;;;;;4975913;28;20076;-80
2023/06/01 08:49:01;;;;;;;5.05;3.83;;;20.60;49.40;;;;;;4975586;28;20076;-81
2023/06/01 08:51:29;;;;;;;4.65;4.25;;;20.80;49.30;;;;;;4969714;28;20293;-79
2023/06/01 08:54:00;;;;;;;4.60;4.18;;;20.90;49.10;;;;;;4978297;28;20038;-83
2023/06/01 08:56:27;;;;;;;4.97;4.25;;;21.10;49.00;;;;;;4977988;28;20041;-82
2023/06/01 08:58:55;;;;;;;7.10;4.20;;;21.20;48.80;;;;;;4976002;28;20046;-82
2023/06/01 09:01:23;;;;;;;6.38;4.43;;;21.40;48.80;;;;;;4977654;28;20041;-82
2023/06/01 09:03:51;;;;;;;5.28;4.45;;;21.50;48.50;;;;;;4978806;28;20035;-82
2023/06/01 09:06:20;;;;;;;4.53;4.13;;;21.70;48.60;;;;;;4977959;28;20034;-82
2023/06/01 09:08:46;;;;;;;6.40;4.47;;;21.80;48.40;;;;;;4976470;28;20387;-81
2023/06/01 09:11:12;;;;;;;6.85;4.40;;;22.00;48.40;;;;;;4973850;28;20041;-82
2023/06/01 09:13:40;;;;;;;4.88;4.47;;;22.10;48.30;;;;;;4979861;28;20766;-81
2023/06/01 09:16:06;;;;;;;4.57;4.15;;;22.20;48.00;;;;;;4977955;28;20494;-82
2023/06/01 09:18:33;;;;;;;5.03;4.20;;;22.40;48.00;;;;;;4987586;28;20065;-81
2023/06/01 09:21:15;;;;;;;4.18;3.80;;;22.50;47.80;;;;;;4974240;28;20037;-80
2023/06/01 09:23:42;;;;;;;5.47;4.30;;;22.70;47.70;;;;;;4979566;28;20046;-80
2023/06/01 09:26:12;;;;;;;5.03;4.30;;;22.80;47.70;;;;;;4980663;28;20521;-83
2023/06/01 09:29:00;;;;;;;5.03;4.20;;;22.90;48.10;;;;;;4980775;28;20455;-81
2023/06/01 09:31:44;;;;;;;5.15;3.90;;;23.00;47.20;;;;;;4975243;28;20125;-80
2023/06/01 09:34:21;;;;;;;5.50;4.43;;;23.20;47.20;;;;;;4958862;28;20042;-80
2023/06/01 09:36:54;;;;;;;4.97;4.45;;;23.30;47.10;;;;;;4973654;28;20034;-80
2023/06/01 09:39:25;;;;;;;5.35;4.55;;;23.50;47.10;;;;;;4997089;28;20038;-80
2023/06/01 09:42:04;;;;;;;4.57;4.18;;;23.60;46.90;;;;;;4980673;28;20042;-80
2023/06/01 09:44:36;;;;;;;3.97;3.63;;;23.80;47.00;;;;;;4984316;28;20794;-81
2023/06/01 09:47:10;;;;;;;4.03;3.67;;;24.00;47.00;;;;;;4977070;28;20078;-79
2023/06/01 09:49:41;;;;;;;4.00;3.58;;;24.10;46.80;;;;;;4979339;28;20642;-81
2023/06/01 09:52:12;;;;;;;4.35;3.95;;;24.20;46.60;;;;;;4977630;28;20034;-81
2023/06/01 09:54:43;;;;;;;4.22;3.80;;;24.50;46.80;;;;;;4976240;28;20491;-81
2023/06/01 09:57:12;;;;;;;5.50;4.20;;;24.60;46.60;;;;;;4976813;28;20042;-82
2023/06/01 09:59:40;;;;;;;4.53;3.80;;;24.80;46.60;;;;;;4976047;28;20073;-82
2023/06/01 10:02:10;;;;;;;3.92;3.60;;;25.00;46.70;;;;;;4977506;28;20053;-81
2023/06/01 10:04:42;;;;;;;3.70;3.40;;;25.20;46.20;;;;;;4979661;28;20049;-82
2023/06/01 10:07:11;;;;;;;4.03;3.63;;;25.40;45.90;;;;;;4986888;28;20037;-82
2023/06/01 10:09:38;;;;;;;3.95;3.22;;;25.60;45.70;;;;;;4982662;28;20133;-81
2023/06/01 10:12:14;;;;;;;4.18;3.53;;;25.80;45.40;;;;;;4980014;28;20038;-79
2023/06/01 10:14:40;;;;;;;3.92;3.45;;;25.90;45.20;;;;;;4971546;28;20386;-82
2023/06/01 10:17:09;;;;;;;5.07;3.75;;;26.00;45.00;;;;;;4980004;28;20042;-81
2023/06/01 10:19:39;;;;;;;4.38;3.75;;;26.10;44.80;;;;;;4978328;28;20474;-81
2023/06/01 10:22:11;;;;;;;3.65;3.35;;;26.20;44.50;;;;;;4978682;28;20049;-82
2023/06/01 10:24:41;;;;;;;3.65;3.28;;;26.30;44.40;;;;;;4978220;28;20066;-80
2023/06/01 10:27:26;;;;;;;5.45;3.47;;;26.40;44.10;;;;;;4977038;28;20101;-81
2023/06/01 10:29:56;;;;;;;3.35;3.00;;;26.50;43.70;;;;;;4974283;28;20057;-82
2023/06/01 10:32:37;;;;;;;3.78;3.25;;;26.60;43.70;;;;;;4979495;28;20066;-83
2023/06/01 10:35:04;;;;;;;3.30;3.00;;;26.80;43.40;;;;;;4974663;28;20049;-83
2023/06/01 10:37:35;;;;;;;;;;;26.90;43.30;;;;;;4975492;28;20034;-82
2023/06/01 10:40:24;;;;;;;2.90;2.70;;;27.00;43.20;;;;;;4975102;28;19922;-83
2023/06/01 10:42:50;;;;;;;3.65;2.85;;;27.10;43.00;;;;;;4968387;28;20125;-82
2023/06/01 10:45:40;;;;;;;5.15;3.22;;;27.20;43.00;;;;;;4973515;28;20036;-83
2023/06/01 10:48:12;;;;;;;3.03;2.72;;;27.30;43.20;;;;;;4981947;28;20229;-82
2023/06/01 10:51:19;;;;;;;3.85;3.10;;;27.30;42.60;;;;;;4978237;28;20447;-83
2023/06/01 10:53:52;;;;;;;3.33;3.00;;;27.50;42.90;;;;;;4977996;28;20038;-86
2023/06/01 10:56:26;;;;;;;4.00;3.60;;;27.70;42.20;;;;;;4980456;28;20846;-84
2023/06/01 10:59:08;;;;;;;4.97;4.57;;;27.90;41.90;;;;;;4978336;28;20054;-84
2023/06/01 11:01:43;;;;;;;5.30;4.25;;;28.00;41.60;;;;;;4979424;28;20038;-88
2023/06/01 11:04:13;;;;;;;5.03;4.47;;;28.20;42.20;;;;;;4958523;28;20114;-83
2023/06/01 11:06:43;;;;;;;4.85;4.35;;;28.30;41.30;;;;;;4977895;28;20104;-82
2023/06/01 11:09:15;;;;;;;4.85;3.90;;;28.70;41.20;;;;;;4977447;28;20046;-82
2023/06/01 11:11:58;;;;;;;4.32;3.92;;;29.00;40.80;;;;;;4968763;28;20042;-81
2023/06/01 11:14:30;;;;;;;4.93;3.65;;;29.20;40.30;;;;;;4975850;28;20096;-82
2023/06/01 11:17:29;;;;;;;3.42;3.10;;;29.30;40.10;;;;;;4972992;28;20038;-82
2023/06/01 11:20:01;;;;;;;4.32;3.50;;;29.50;39.80;;;;;;4978228;28;20058;-82
2023/06/01 11:22:37;;;;;;;4.30;3.00;;;29.60;39.80;;;;;;4974996;28;20037;-83
2023/06/01 11:25:08;;;;;;;3.60;3.30;;;29.80;39.50;;;;;;4975198;28;20046;-82
2023/06/01 11:27:44;;;;;;;3.22;2.92;;;30.00;39.40;;;;;;4969996;28;20038;-82
2023/06/01 11:30:10;;;;;;;3.80;3.08;;;30.00;39.10;;;;;;4974477;28;20053;-81
2023/06/01 11:32:40;;;;;;;3.65;2.95;;;30.00;39.10;;;;;;4979322;28;20034;-83
2023/06/01 11:35:17;;;;;;;4.05;2.95;;;29.90;39.00;;;;;;4978500;28;20393;-83
2023/06/01 11:37:43;;;;;;;3.67;2.92;;;29.90;38.90;;;;;;4978443;28;20041;-84
2023/06/01 11:40:10;;;;;;;4.45;3.40;;;30.00;39.00;;;;;;4977532;28;20120;-86
2023/06/01 11:42:40;;;;;;;4.07;3.35;;;30.20;38.80;;;;;;4976986;28;20359;-85
2023/06/01 11:45:06;;;;;;;2.78;2.53;;;30.30;38.50;;;;;;4978127;28;20453;-80
2023/06/01 11:47:38;;;;;;;3.72;3.40;;;30.40;38.30;;;;;;4978968;28;20046;-85
2023/06/01 11:50:05;;;;;;;8.82;3.60;;;30.50;38.10;;;;;;4978391;28;20121;-86
2023/06/01 11:52:34;;;;;;;6.20;3.88;;;30.60;38.10;;;;;;4978256;28;20042;-86
2023/06/01 11:55:04;;;;;;;3.38;3.03;;;30.60;38.00;;;;;;4991223;28;20194;-84
2023/06/01 11:57:30;;;;;;;3.88;3.50;;;30.70;37.80;;;;;;4979222;28;20117;-85
2023/06/01 12:00:03;;;;;;;5.38;3.70;;;30.80;37.70;;;;;;4967888;28;20038;-86
2023/06/01 12:02:33;;;;;;;4.95;3.05;;;30.90;37.60;;;;;;4979732;28;20137;-85
2023/06/01 12:05:08;;;;;;;3.35;3.05;;;31.00;37.50;;;;;;4979477;28;20045;-85
2023/06/01 12:07:53;;;;;;;3.88;3.58;;;31.00;37.40;;;;;;4979736;28;20049;-81
2023/06/01 12:10:22;;;;;;;4.63;4.13;;;31.00;37.00;;;;;;4971515;28;20057;-83
2023/06/01 12:13:09;;;;;;;4.25;3.53;;;30.90;37.20;;;;;;4968440;28;20117;-85
2023/06/01 12:15:35;;;;;;;3.70;3.40;;;30.90;37.40;;;;;;4982127;28;20046;-82
2023/06/01 12:18:08;;;;;;;4.38;3.50;;;30.90;37.30;;;;;;4978501;28;20066;-86
2023/06/01 12:20:36;;;;;;;5.45;3.65;;;31.00;37.20;;;;;;4976084;28;20034;-86
2023/06/01 12:23:15;;;;;;;4.57;3.42;;;31.00;37.10;;;;;;4959896;28;20130;-86
2023/06/01 12:25:55;;;;;;;3.40;3.10;;;30.90;37.10;;;;;;4982916;28;20038;-86
2023/06/01 12:28:23;;;;;;;3.30;3.00;;;30.90;37.10;;;;;;4970438;28;20238;-86
2023/06/01 12:31:12;;;;;;;3.95;3.65;;;30.90;37.20;;;;;;4970885;28;20097;-82
2023/06/01 12:33:51;;;;;;;3.80;3.30;;;31.00;36.90;;;;;;4980103;28;20046;-86
2023/06/01 12:36:34;;;;;;;3.53;2.92;;;31.20;37.00;;;;;;4980627;28;20038;-85
2023/06/01 12:39:03;;;;;;;4.18;3.42;;;31.30;36.80;;;;;;4979436;28;20042;-87
2023/06/01 12:41:30;;;;;;;3.90;3.60;;;31.40;36.70;;;;;;4979417;28;20031;-87
2023/06/01 12:44:02;;;;;;;3.55;3.22;;;31.50;36.60;;;;;;4978118;28;20533;-87
2023/06/01 12:46:35;;;;;;;3.30;2.95;;;31.60;36.50;;;;;;4969179;28;20304;-87
2023/06/01 12:49:12;;;;;;;4.55;3.67;;;31.70;36.40;;;;;;4971740;28;20414;-87
2023/06/01 12:51:38;;;;;;;3.38;3.00;;;31.80;36.10;;;;;;4968770;28;20149;-83
2023/06/01 12:54:07;;;;;;;4.85;3.25;;;31.90;36.20;;;;;;4978371;28;20034;-85
2023/06/01 12:56:33;;;;;;;2.83;2.63;;;31.90;36.00;;;;;;4977613;28;20509;-84
2023/06/01 12:58:59;;;;;;;3.55;3.15;;;32.10;36.00;;;;;;4987604;28;20034;-81
2023/06/01 13:01:25;;;;;;;3.03;2.78;;;32.10;35.80;;;;;;4972108;28;20042;-83
2023/06/01 13:03:52;;;;;;;4.15;2.97;;;32.20;35.80;;;;;;4982013;28;20501;-87
2023/06/01 13:06:19;;;;;;;3.35;2.67;;;32.30;35.70;;;;;;4975863;28;20069;-87
2023/06/01 13:08:45;;;;;;;3.38;3.08;;;32.40;35.60;;;;;;4985492;28;20088;-86